createdAt,value
2018-05-10T00:00:43.631Z,53.80
2018-05-10T00:03:11.401Z,54.80
2018-05-10T00:05:37.693Z,53.60
2018-05-10T00:08:04.674Z,52.90
2018-05-10T00:10:30.836Z,53.00
2018-05-10T00:12:57.124Z,52.80
2018-05-10T00:15:23.293Z,53.70
2018-05-10T00:17:49.504Z,53.50
2018-05-10T00:20:15.708Z,53.70
2018-05-10T00:25:32.909Z,53.80
2018-05-10T00:27:59.878Z,53.80
2018-05-10T00:30:26.909Z,53.30
2018-05-10T00:32:53.833Z,53.20
2018-05-10T00:35:20.050Z,53.20
2018-05-10T00:37:46.303Z,52.80
2018-05-10T00:40:12.532Z,52.60
2018-05-10T00:42:38.721Z,52.70
2018-05-10T00:45:04.887Z,53.70
2018-05-10T00:47:31.105Z,53.00
2018-05-10T00:49:57.296Z,53.20
2018-05-10T00:52:23.509Z,53.00
2018-05-10T00:54:51.878Z,52.60
2018-05-10T00:57:18.911Z,52.90
2018-05-10T00:59:45.820Z,53.20
2018-05-10T01:02:12.075Z,52.60
2018-05-10T01:04:38.245Z,52.70
2018-05-10T01:07:04.406Z,52.00
2018-05-10T01:09:30.593Z,52.40
2018-05-10T01:11:56.835Z,53.00
2018-05-10T01:14:22.989Z,52.20
2018-05-10T01:16:49.205Z,52.40
2018-05-10T01:19:17.542Z,52.20
2018-05-10T01:21:43.757Z,52.70
2018-05-10T01:24:10.730Z,52.70
2018-05-10T01:26:36.900Z,52.40
2018-05-10T01:29:03.476Z,53.20
2018-05-10T01:31:30.380Z,54.40
2018-05-10T01:33:56.553Z,53.70
2018-05-10T01:36:23.477Z,53.80
2018-05-10T01:38:49.732Z,52.90
2018-05-10T01:41:16.644Z,53.40
2018-05-10T01:43:42.825Z,52.70
2018-05-10T01:46:09.009Z,53.30
2018-05-10T01:48:35.181Z,53.10
2018-05-10T01:51:01.357Z,54.10
2018-05-10T01:53:27.565Z,55.00
2018-05-10T01:55:53.756Z,54.50
2018-05-10T01:58:19.931Z,55.70
2018-05-10T02:00:46.117Z,54.90
2018-05-10T02:03:12.343Z,55.10
2018-05-10T02:05:38.542Z,54.30
2018-05-10T02:08:04.697Z,54.80
2018-05-10T02:10:30.889Z,54.30
2018-05-10T02:12:57.103Z,54.50
2018-05-10T02:15:23.280Z,54.50
2018-05-10T02:17:50.194Z,54.70
2018-05-10T02:20:16.411Z,54.20
2018-05-10T02:22:42.601Z,54.20
2018-05-10T02:25:08.796Z,54.70
2018-05-10T02:27:35.708Z,55.50
2018-05-10T02:30:01.958Z,54.40
2018-05-10T02:32:28.111Z,54.40
2018-05-10T02:34:54.316Z,54.60
2018-05-10T02:37:20.547Z,55.20
2018-05-10T02:39:47.473Z,56.40
2018-05-10T02:42:13.661Z,55.40
2018-05-10T02:44:40.669Z,55.00
2018-05-10T02:47:07.626Z,56.20
2018-05-10T02:49:34.559Z,56.90
2018-05-10T02:52:01.500Z,56.40
2018-05-10T02:54:27.683Z,56.80
2018-05-10T02:56:53.913Z,57.80
2018-05-10T02:59:20.862Z,62.20
2018-05-10T03:01:47.088Z,60.90
2018-05-10T03:04:13.258Z,61.00
2018-05-10T03:06:40.985Z,62.50
2018-05-10T03:09:07.186Z,61.10
2018-05-10T03:11:33.389Z,61.10
2018-05-10T03:13:59.949Z,63.00
2018-05-10T03:16:26.202Z,63.10
2018-05-10T03:18:52.373Z,63.70
2018-05-10T03:21:18.571Z,64.80
2018-05-10T03:23:44.780Z,66.00
2018-05-10T03:26:10.975Z,66.30
2018-05-10T03:28:37.939Z,67.50
2018-05-10T03:31:04.190Z,67.50
2018-05-10T03:33:30.404Z,68.00
2018-05-10T03:35:56.662Z,68.90
2018-05-10T03:38:22.852Z,70.00
2018-05-10T03:40:49.062Z,70.50
2018-05-10T03:43:16.033Z,72.00
2018-05-10T03:45:42.264Z,72.30
2018-05-10T03:48:08.480Z,72.70
2018-05-10T03:50:35.426Z,70.40
2018-05-10T03:53:02.328Z,70.20
2018-05-10T03:55:28.541Z,69.80
2018-05-10T03:57:54.717Z,69.50
2018-05-10T04:00:21.075Z,70.40
2018-05-10T04:06:07.935Z,72.00
2018-05-10T04:08:46.318Z,71.00
2018-05-10T04:11:30.513Z,70.60
2018-05-10T04:13:56.727Z,69.60
2018-05-10T04:16:22.972Z,69.90
2018-05-10T04:18:51.031Z,69.50
2018-05-10T04:21:17.253Z,69.10
2018-05-10T04:23:43.485Z,69.80
2018-05-10T04:26:09.694Z,69.80
2018-05-10T04:28:35.887Z,70.40
2018-05-10T04:31:02.838Z,71.10
2018-05-10T04:33:29.886Z,72.50
2018-05-10T04:35:56.928Z,73.20
2018-05-10T04:38:24.010Z,73.40
2018-05-10T04:40:50.183Z,74.30
2018-05-10T04:43:16.388Z,73.60
2018-05-10T04:45:42.546Z,72.60
2018-05-10T04:48:08.760Z,73.20
2018-05-10T04:50:34.949Z,72.30
2018-05-10T04:53:01.153Z,72.10
2018-05-10T04:55:28.055Z,72.30
2018-05-10T04:57:54.269Z,69.70
2018-05-10T05:00:20.435Z,69.70
2018-05-10T05:02:46.633Z,69.10
2018-05-10T05:05:12.822Z,69.80
2018-05-10T05:07:38.972Z,69.10
2018-05-10T05:10:06.262Z,71.10
2018-05-10T05:12:32.457Z,70.30
2018-05-10T05:14:58.659Z,69.80
2018-05-10T05:17:25.174Z,69.70
2018-05-10T05:19:52.114Z,69.30
2018-05-10T05:22:18.284Z,68.50
2018-05-10T05:24:44.457Z,69.10
2018-05-10T05:27:10.646Z,69.70
2018-05-10T05:29:36.834Z,69.70
2018-05-10T05:32:03.774Z,69.50
2018-05-10T05:34:30.687Z,69.30
2018-05-10T05:36:56.873Z,68.80
2018-05-10T05:39:23.079Z,69.00
2018-05-10T05:41:50.010Z,69.40
2018-05-10T05:44:16.244Z,69.40
2018-05-10T05:46:42.426Z,69.10
2018-05-10T05:49:08.597Z,68.30
2018-05-10T05:51:34.958Z,68.70
2018-05-10T05:54:01.903Z,68.50
2018-05-10T05:56:28.815Z,67.00
2018-05-10T05:58:54.994Z,67.00
2018-05-10T06:01:21.202Z,66.80
2018-05-10T06:03:48.101Z,66.30
2018-05-10T06:06:14.405Z,66.30
2018-05-10T06:08:40.647Z,66.40
2018-05-10T06:11:06.757Z,66.20
2018-05-10T06:13:32.964Z,66.80
2018-05-10T06:15:59.979Z,66.70
2018-05-10T06:18:26.103Z,66.00
2018-05-10T06:20:52.303Z,66.80
2018-05-10T06:23:18.497Z,66.00
2018-05-10T06:25:45.397Z,67.50
2018-05-10T06:28:11.611Z,67.60
2018-05-10T06:30:38.593Z,66.30
2018-05-10T06:33:04.824Z,65.70
2018-05-10T06:35:31.016Z,65.60
2018-05-10T06:37:57.183Z,65.90
2018-05-10T06:40:24.106Z,68.60
2018-05-10T06:42:50.277Z,68.60
2018-05-10T06:45:17.318Z,69.00
2018-05-10T06:47:44.293Z,68.90
2018-05-10T06:50:10.600Z,68.80
2018-05-10T06:52:37.530Z,69.80
2018-05-10T06:55:04.521Z,70.10
2018-05-10T06:57:30.797Z,70.00
2018-05-10T06:59:57.023Z,68.90
2018-05-10T07:02:23.261Z,70.30
2018-05-10T07:04:49.469Z,70.10
2018-05-10T07:07:15.695Z,71.10
2018-05-10T07:09:42.013Z,71.80
2018-05-10T07:12:08.134Z,73.30
2018-05-10T07:14:34.376Z,75.60
2018-05-10T07:17:00.549Z,73.50
2018-05-10T07:19:27.538Z,77.00
2018-05-10T07:21:53.675Z,77.00
2018-05-10T07:24:19.894Z,77.20
2018-05-10T07:26:46.102Z,76.30
2018-05-10T07:29:12.327Z,74.80
2018-05-10T07:31:38.521Z,74.10
2018-05-10T07:34:04.708Z,74.30
2018-05-10T07:36:30.984Z,73.70
2018-05-10T07:38:57.974Z,76.30
2018-05-10T07:41:24.185Z,76.30
2018-05-10T07:43:50.440Z,72.20
2018-05-10T07:46:16.695Z,72.80
2018-05-10T07:48:42.869Z,72.70
2018-05-10T07:51:09.089Z,72.40
2018-05-10T07:53:36.097Z,72.30
2018-05-10T07:56:02.317Z,70.10
2018-05-10T07:58:28.502Z,70.50
2018-05-10T08:00:54.702Z,71.40
2018-05-10T08:03:20.882Z,71.70
2018-05-10T08:05:47.056Z,72.10
2018-05-10T08:08:13.268Z,73.10
2018-05-10T08:10:39.485Z,72.60
2018-05-10T08:13:06.657Z,72.50
2018-05-10T08:15:32.897Z,72.40
2018-05-10T08:17:59.147Z,71.80
2018-05-10T08:20:26.117Z,73.30
2018-05-10T08:22:52.342Z,73.20
2018-05-10T08:25:18.555Z,71.00
2018-05-10T08:27:45.849Z,71.40
2018-05-10T08:30:12.278Z,71.50
2018-05-10T08:32:38.602Z,71.40
2018-05-10T08:35:04.861Z,71.00
2018-05-10T08:37:31.106Z,70.00
2018-05-10T08:39:57.308Z,70.00
2018-05-10T08:42:23.740Z,69.80
2018-05-10T08:44:49.956Z,69.50
2018-05-10T08:47:16.185Z,70.10
2018-05-10T08:49:42.373Z,67.90
2018-05-10T08:52:09.363Z,68.60
2018-05-10T08:54:35.634Z,68.10
2018-05-10T08:57:01.898Z,67.70
2018-05-10T08:59:28.258Z,67.80
2018-05-10T09:01:54.448Z,67.90
2018-05-10T09:04:21.429Z,68.90
2018-05-10T09:06:47.648Z,68.90
2018-05-10T09:09:13.953Z,68.00
2018-05-10T09:11:41.028Z,68.30
2018-05-10T09:14:07.355Z,67.80
2018-05-10T09:16:33.582Z,68.00
2018-05-10T09:18:59.803Z,68.50
2018-05-10T09:21:26.170Z,68.80
2018-05-10T09:23:52.360Z,67.90
2018-05-10T09:26:18.618Z,68.00
2018-05-10T09:28:44.827Z,68.90
2018-05-10T09:31:11.035Z,67.20
2018-05-10T09:33:37.267Z,67.20
2018-05-10T09:36:04.215Z,67.40
2018-05-10T09:38:30.417Z,68.50
2018-05-10T09:40:56.685Z,67.30
2018-05-10T09:43:22.878Z,67.00
2018-05-10T09:45:49.098Z,66.10
2018-05-10T09:48:15.665Z,65.80
2018-05-10T09:50:41.885Z,65.80
2018-05-10T09:53:08.855Z,66.50
2018-05-10T09:55:36.543Z,66.80
2018-05-10T09:58:02.806Z,67.50
2018-05-10T10:00:29.016Z,66.00
2018-05-10T10:02:55.280Z,66.30
2018-05-10T10:05:22.282Z,66.90
2018-05-10T10:07:48.535Z,65.50
2018-05-10T10:10:14.739Z,66.50
2018-05-10T10:12:40.978Z,66.20
2018-05-10T10:15:07.163Z,66.30
2018-05-10T10:17:33.442Z,65.50
2018-05-10T10:19:59.611Z,64.80
2018-05-10T10:32:15.857Z,65.80
2018-05-10T10:34:42.082Z,66.40
2018-05-10T10:37:08.320Z,67.30
2018-05-10T10:39:35.319Z,68.40
2018-05-10T10:42:01.595Z,68.40
2018-05-10T10:44:28.877Z,68.70
2018-05-10T10:46:55.167Z,68.60
2018-05-10T10:49:21.388Z,67.10
2018-05-10T10:51:47.584Z,67.60
2018-05-10T11:03:59.078Z,65.30
2018-05-10T11:06:25.332Z,65.80
2018-05-10T11:08:52.271Z,65.80
2018-05-10T11:11:18.513Z,65.30
2018-05-10T11:13:45.489Z,64.80
2018-05-10T11:16:11.731Z,64.70
2018-05-10T11:18:37.921Z,63.90
2018-05-10T11:21:04.145Z,63.20
2018-05-10T11:23:30.360Z,62.70
2018-05-10T11:25:57.419Z,62.10
2018-05-10T11:28:24.396Z,62.10
2018-05-10T11:30:50.633Z,62.00
2018-05-10T11:33:16.912Z,62.00
2018-05-10T11:35:43.087Z,62.00
2018-05-10T11:38:09.686Z,62.40
2018-05-10T11:40:36.758Z,63.30
2018-05-10T11:43:02.959Z,63.20
2018-05-10T11:45:29.939Z,62.10
2018-05-10T11:47:56.837Z,62.10
2018-05-10T11:50:37.950Z,61.80
2018-05-10T11:53:04.172Z,63.70
2018-05-10T11:55:31.162Z,63.40
2018-05-10T11:57:57.444Z,63.30
2018-05-10T12:00:25.170Z,63.60
2018-05-10T12:02:51.394Z,62.50
2018-05-10T12:05:17.673Z,62.60
2018-05-10T12:07:44.831Z,61.10
2018-05-10T12:10:13.652Z,60.10
2018-05-10T12:12:40.830Z,61.20
2018-05-10T12:15:07.307Z,61.00
2018-05-10T12:17:36.940Z,61.50
2018-05-10T12:20:04.007Z,61.60
2018-05-10T12:22:30.288Z,61.90
2018-05-10T12:24:57.319Z,61.90
2018-05-10T12:27:24.318Z,59.40
2018-05-10T12:29:50.563Z,57.70
2018-05-10T12:32:16.765Z,58.20
2018-05-10T12:34:43.021Z,59.30
2018-05-10T12:37:09.204Z,59.90
2018-05-10T12:39:35.416Z,59.40
2018-05-10T12:42:02.995Z,60.20
2018-05-10T12:44:29.257Z,59.80
2018-05-10T12:46:55.683Z,60.40
2018-05-10T12:49:21.896Z,60.50
2018-05-10T12:51:48.079Z,60.10
2018-05-10T12:54:14.631Z,61.00
2018-05-10T12:56:41.533Z,60.90
2018-05-10T12:59:07.764Z,60.90
2018-05-10T13:01:33.940Z,62.10
2018-05-10T13:04:00.854Z,61.40
2018-05-10T13:06:27.025Z,60.60
2018-05-10T13:08:53.215Z,61.00
2018-05-10T13:11:19.433Z,61.20
2018-05-10T13:13:45.661Z,60.00
2018-05-10T13:16:11.956Z,59.70
2018-05-10T13:18:38.079Z,61.50
2018-05-10T13:21:04.434Z,61.30
2018-05-10T13:23:30.655Z,61.80
2018-05-10T13:25:57.324Z,60.70
2018-05-10T13:28:23.622Z,60.70
2018-05-10T13:30:49.844Z,61.10
2018-05-10T13:33:16.024Z,60.30
2018-05-10T13:35:42.295Z,59.00
2018-05-10T13:38:08.524Z,59.90
2018-05-10T13:40:34.747Z,57.50
2018-05-10T13:43:00.907Z,56.50
2018-05-10T13:45:27.169Z,56.60
2018-05-10T13:47:54.117Z,58.60
2018-05-10T13:50:21.136Z,58.10
2018-05-10T13:52:47.332Z,56.90
2018-05-10T13:55:14.259Z,57.80
2018-05-10T13:57:41.262Z,57.40
2018-05-10T14:00:08.169Z,58.80
2018-05-10T14:02:34.395Z,58.70
2018-05-10T14:05:04.134Z,58.30
2018-05-10T14:07:30.332Z,59.40
2018-05-10T14:09:56.546Z,59.40
2018-05-10T14:12:23.497Z,58.00
2018-05-10T14:14:50.498Z,57.80
2018-05-10T14:17:17.110Z,58.70
2018-05-10T14:19:44.413Z,57.50
2018-05-10T14:22:10.673Z,58.00
2018-05-10T14:24:37.910Z,59.20
2018-05-10T14:27:04.962Z,58.50
2018-05-10T14:29:31.921Z,56.10
2018-05-10T14:31:58.162Z,57.30
2018-05-10T14:34:25.133Z,57.20
2018-05-10T14:36:51.323Z,57.70
2018-05-10T14:39:17.574Z,58.90
2018-05-10T14:41:43.772Z,58.90
2018-05-10T14:44:10.754Z,58.90
2018-05-10T14:46:36.988Z,59.00
2018-05-10T14:49:03.234Z,58.60
2018-05-10T14:51:29.993Z,58.70
2018-05-10T14:53:56.229Z,58.20
2018-05-10T14:56:22.444Z,58.50
2018-05-10T14:58:48.660Z,59.00
2018-05-10T15:01:14.834Z,60.10
2018-05-10T15:03:41.046Z,58.80
2018-05-10T15:06:07.990Z,59.60
2018-05-10T15:08:34.959Z,59.40
2018-05-10T15:11:01.993Z,60.00
2018-05-10T15:13:28.985Z,59.50
2018-05-10T15:15:55.205Z,60.00
2018-05-10T15:18:21.377Z,59.70
2018-05-10T15:20:47.585Z,59.70
2018-05-10T15:23:13.764Z,59.70
2018-05-10T15:25:40.699Z,60.20
2018-05-10T15:28:07.627Z,60.30
2018-05-10T15:30:33.899Z,60.30
2018-05-10T15:33:00.127Z,59.50
2018-05-10T15:35:26.432Z,59.30
2018-05-10T15:37:52.568Z,60.50
2018-05-10T15:40:19.531Z,61.20
2018-05-10T15:42:45.765Z,61.10
2018-05-10T15:45:12.095Z,61.60
2018-05-10T15:47:38.288Z,62.00
2018-05-10T15:50:05.253Z,62.20
2018-05-10T15:52:32.216Z,62.20
2018-05-10T15:54:58.443Z,61.50
2018-05-10T15:57:24.649Z,62.50
2018-05-10T15:59:53.358Z,62.60
2018-05-10T16:02:20.438Z,62.90
2018-05-10T16:04:46.654Z,62.90
2018-05-10T16:07:12.932Z,63.10
2018-05-10T16:09:39.072Z,62.60
2018-05-10T16:12:06.049Z,61.70
2018-05-10T16:14:32.296Z,61.20
2018-05-10T16:16:58.562Z,61.30
2018-05-10T16:19:24.868Z,61.00
2018-05-10T16:21:51.118Z,60.60
2018-05-10T16:24:18.230Z,61.20
2018-05-10T16:26:44.485Z,62.00
2018-05-10T16:29:11.456Z,62.50
2018-05-10T16:31:39.704Z,64.20
2018-05-10T16:34:05.977Z,63.50
2018-05-10T16:36:32.936Z,63.40
2018-05-10T16:38:59.209Z,63.40
2018-05-10T16:41:25.474Z,63.30
2018-05-10T16:43:52.455Z,63.40
2018-05-10T16:46:18.716Z,62.30
2018-05-10T16:48:44.966Z,63.10
2018-05-10T16:51:11.238Z,62.60
2018-05-10T16:53:37.447Z,63.00
2018-05-10T16:56:05.104Z,63.20
2018-05-10T16:58:32.682Z,63.80
2018-05-10T17:00:58.993Z,63.20
2018-05-10T17:03:25.945Z,63.70
2018-05-10T17:05:52.892Z,64.40
2018-05-10T17:08:19.871Z,65.00
2018-05-10T17:10:46.110Z,63.90
2018-05-10T17:13:12.316Z,63.20
2018-05-10T17:15:38.535Z,63.20
2018-05-10T17:18:04.755Z,64.30
2018-05-10T17:20:31.717Z,63.80
2018-05-10T17:22:58.042Z,63.30
2018-05-10T17:25:24.381Z,64.80
2018-05-10T17:27:50.571Z,64.00
2018-05-10T17:30:17.526Z,64.90
2018-05-10T17:32:44.470Z,65.20
2018-05-10T17:35:11.472Z,65.70
2018-05-10T17:37:37.671Z,65.20
2018-05-10T17:40:03.870Z,65.60
2018-05-10T17:42:30.832Z,65.50
2018-05-10T17:44:57.861Z,64.90
2018-05-10T17:47:24.107Z,64.80
2018-05-10T17:49:51.098Z,64.60
2018-05-10T17:52:18.181Z,63.90
2018-05-10T17:54:44.478Z,64.60
2018-05-10T17:57:10.692Z,65.20
2018-05-10T17:59:36.993Z,65.50
2018-05-10T18:02:03.997Z,65.80
2018-05-10T18:04:30.936Z,65.90
2018-05-10T18:06:57.206Z,65.80
2018-05-10T18:09:24.148Z,66.70
2018-05-10T18:11:51.342Z,66.70
2018-05-10T18:14:18.395Z,67.30
2018-05-10T18:16:44.634Z,67.00
2018-05-10T18:19:10.916Z,67.50
2018-05-10T18:21:37.997Z,67.40
2018-05-10T18:24:04.249Z,66.80
2018-05-10T18:26:30.472Z,67.40
2018-05-10T18:28:56.774Z,67.50
2018-05-10T18:31:23.022Z,68.10
2018-05-10T18:33:49.254Z,68.30
2018-05-10T18:36:16.509Z,68.00
2018-05-10T18:38:42.746Z,68.20
2018-05-10T18:41:09.096Z,68.20
2018-05-10T18:43:35.221Z,68.80
2018-05-10T18:46:01.396Z,68.90
2018-05-10T18:48:28.394Z,69.20
2018-05-10T18:50:54.624Z,68.70
2018-05-10T18:53:20.813Z,69.20
2018-05-10T18:55:47.759Z,68.60
2018-05-10T18:58:14.065Z,69.00
2018-05-10T19:00:41.027Z,69.30
2018-05-10T19:03:07.241Z,68.20
2018-05-10T19:05:34.328Z,68.80
2018-05-10T19:08:00.547Z,68.80
2018-05-10T19:10:26.698Z,68.60
2018-05-10T19:12:52.900Z,68.40
2018-05-10T19:15:19.165Z,68.90
2018-05-10T19:17:46.031Z,69.20
2018-05-10T19:20:12.304Z,69.00
2018-05-10T19:22:38.579Z,69.00
2018-05-10T19:25:04.800Z,69.10
2018-05-10T19:27:31.032Z,69.00
2018-05-10T19:29:57.249Z,68.80
2018-05-10T19:32:23.498Z,69.30
2018-05-10T19:34:51.144Z,70.40
2018-05-10T19:37:17.421Z,70.40
2018-05-10T19:39:43.606Z,70.70
2018-05-10T19:42:09.821Z,69.90
2018-05-10T19:44:36.067Z,70.40
2018-05-10T19:47:02.298Z,69.70
2018-05-10T19:49:28.614Z,70.10
2018-05-10T19:51:54.833Z,70.40
2018-05-10T19:54:21.075Z,70.70
2018-05-10T19:56:47.331Z,70.00
2018-05-10T19:59:13.509Z,70.40
2018-05-10T20:01:39.717Z,69.40
2018-05-10T20:04:06.345Z,68.90
2018-05-10T20:06:33.350Z,69.00
2018-05-10T20:08:59.553Z,68.90
2018-05-10T20:11:25.753Z,69.10
2018-05-10T20:13:52.877Z,69.10
2018-05-10T20:16:18.970Z,69.10
2018-05-10T20:18:45.226Z,69.30
2018-05-10T20:21:11.578Z,68.40
2018-05-10T20:23:38.515Z,68.50
2018-05-10T20:26:04.747Z,69.10
2018-05-10T20:28:31.749Z,69.30
2018-05-10T20:30:58.032Z,68.50
2018-05-10T20:33:25.055Z,68.80
2018-05-10T20:35:51.379Z,68.60
2018-05-10T20:38:18.993Z,68.10
2018-05-10T20:40:45.185Z,68.30
2018-05-10T20:43:13.098Z,68.70
2018-05-10T20:45:39.271Z,68.30
2018-05-10T20:48:05.456Z,68.60
2018-05-10T20:50:31.809Z,69.20
2018-05-10T20:52:57.925Z,69.80
2018-05-10T20:55:24.129Z,70.40
2018-05-10T20:57:51.134Z,70.80
2018-05-10T21:00:18.146Z,71.10
2018-05-10T21:02:44.455Z,70.10
2018-05-10T21:05:12.853Z,70.00
2018-05-10T21:07:39.087Z,70.40
2018-05-10T21:10:05.469Z,68.90
2018-05-10T21:12:39.962Z,68.60
2018-05-10T21:15:06.181Z,68.40
2018-05-10T21:17:32.408Z,67.80
2018-05-10T21:19:58.612Z,68.50
2018-05-10T21:22:24.826Z,68.40
2018-05-10T21:24:51.803Z,68.60
2018-05-10T21:27:18.062Z,68.40
2018-05-10T21:29:44.292Z,69.00
2018-05-10T21:32:10.469Z,69.70
2018-05-10T21:34:38.209Z,69.10
2018-05-10T21:37:04.407Z,69.10
2018-05-10T21:39:30.687Z,69.10
2018-05-10T21:41:57.726Z,68.60
2018-05-10T21:44:24.738Z,68.40
2018-05-10T21:46:50.985Z,68.30
2018-05-10T21:49:29.634Z,68.40
2018-05-10T21:51:55.874Z,68.10
2018-05-10T21:54:22.132Z,68.20
2018-05-10T21:56:48.353Z,68.00
2018-05-10T21:59:14.581Z,68.00
2018-05-10T22:01:40.849Z,68.10
2018-05-10T22:04:07.469Z,67.80
2018-05-10T22:06:33.672Z,67.90
2018-05-10T22:08:59.918Z,68.10
2018-05-10T22:11:26.142Z,68.50
2018-05-10T22:13:52.837Z,69.70
2018-05-10T22:16:19.764Z,69.50
2018-05-10T22:18:46.740Z,69.30
2018-05-10T22:21:13.726Z,69.40
2018-05-10T22:23:39.938Z,68.90
2018-05-10T22:26:06.155Z,69.40
2018-05-10T22:28:32.481Z,69.10
2018-05-10T22:30:58.694Z,69.10
2018-05-10T22:33:25.650Z,69.00
2018-05-10T22:35:52.631Z,69.60
2018-05-10T22:38:18.833Z,69.00
2018-05-10T22:40:45.039Z,69.10
2018-05-10T22:43:12.014Z,70.60
2018-05-10T22:45:39.115Z,69.20
2018-05-10T22:48:05.985Z,69.80
2018-05-10T22:50:32.102Z,69.50
2018-05-10T22:52:59.027Z,70.90
2018-05-10T22:55:25.208Z,70.30
2018-05-10T22:57:51.802Z,69.80
2018-05-10T23:00:18.722Z,69.70
2018-05-10T23:02:44.960Z,69.80
2018-05-10T23:05:11.137Z,70.10
2018-05-10T23:07:37.374Z,71.00
2018-05-10T23:10:03.625Z,69.60
2018-05-10T23:12:29.852Z,70.30
2018-05-10T23:14:56.078Z,70.30
2018-05-10T23:17:22.296Z,69.30
2018-05-10T23:19:48.508Z,68.90
2018-05-10T23:22:14.734Z,68.60
2018-05-10T23:24:41.721Z,68.20
2018-05-10T23:27:07.943Z,68.50
2018-05-10T23:29:34.192Z,69.20
2018-05-10T23:32:00.339Z,69.00
2018-05-10T23:34:26.549Z,69.60
2018-05-10T23:36:52.737Z,69.50
2018-05-10T23:39:18.934Z,68.40
2018-05-10T23:41:45.154Z,67.80
2018-05-10T23:44:12.828Z,66.50
2018-05-10T23:46:39.793Z,65.60
2018-05-10T23:49:06.026Z,63.90
2018-05-10T23:51:32.940Z,63.90
2018-05-10T23:53:59.192Z,63.50
2018-05-10T23:56:26.085Z,63.80
2018-05-10T23:59:07.233Z,63.90
